Portada
METAR-TAF:

METAR-TAF

Aeropuertos :

Ancona, Italia

latitud: 43-37N, longitud: 013-22E, altitud: 12 m

Observación

El informe se hizo hace 1 hora y 6 minutos, a las 02:50 UTC
Viento 3 kt del sureste, variando entre este-sureste y sur-suroeste
Temperatura 6°C
Humedad 87%
Presión 1014 hPa
Visibilidad 10 km o más

METAR: LIPY 250250Z AUTO 14003KT 110V200 9999 NCD 06/04 Q1014

Hora: 04:56 (03:56 UTC)

Pronóstico

El informe se hizo hace 4 horas y 56 minutos, a las 23:00 UTC
Pronóstico válido del 25 a las 00 UTC al 25 a las 24 UTC
Viento 5 kt con dirección variable
Visibilidad 10 km o más
sin nubes por debajo de 1500 m y sin presencia de cumulonimbus.

TAF: LIPY 242300Z 2500/2524 VRB05KT CAVOK

Observaciones y pronósticos meteorológicos de más de 4000 aeropuertos (mensajes METAR y TAF).

Los puntos amarillos y rojos representan las estaciones disponibles.

Ponga el ratón en el punto deseado para ver el nombre de la estación.

Haga clic para ver las observaciones y los pronósticos meteorológicos.

Para cambiar el mapa : haga clic en los botones verdes con una cruz de color negro para hacer un zoom, en el botón verde con un guión para alejar o en las flechas verdes para mapas adyacentes.


METAR-TAF: